sensor_id;sensor_type;location;lat;lon;timestamp;temperature;humidity
19164;DHT22;9714;51.208;4.242;2022-09-01T00:02:27;20.90;93.80
19164;DHT22;9714;51.208;4.242;2022-09-01T00:04:59;21.00;93.70
19164;DHT22;9714;51.208;4.242;2022-09-01T00:07:35;20.80;93.90
19164;DHT22;9714;51.208;4.242;2022-09-01T00:10:05;20.60;94.20
19164;DHT22;9714;51.208;4.242;2022-09-01T00:12:35;20.50;94.50
19164;DHT22;9714;51.208;4.242;2022-09-01T00:15:05;20.50;94.50
19164;DHT22;9714;51.208;4.242;2022-09-01T00:17:33;20.30;94.80
19164;DHT22;9714;51.208;4.242;2022-09-01T00:20:00;20.30;94.70
19164;DHT22;9714;51.208;4.242;2022-09-01T00:22:28;20.40;94.60
19164;DHT22;9714;51.208;4.242;2022-09-01T00:24:56;20.40;94.60
19164;DHT22;9714;51.208;4.242;2022-09-01T00:27:23;20.30;94.80
19164;DHT22;9714;51.208;4.242;2022-09-01T00:29:51;20.50;94.60
19164;DHT22;9714;51.208;4.242;2022-09-01T00:32:19;20.40;94.70
19164;DHT22;9714;51.208;4.242;2022-09-01T00:34:46;20.40;94.40
19164;DHT22;9714;51.208;4.242;2022-09-01T00:37:13;20.30;94.50
19164;DHT22;9714;51.208;4.242;2022-09-01T00:39:40;20.30;94.40
19164;DHT22;9714;51.208;4.242;2022-09-01T00:42:07;20.10;94.60
19164;DHT22;9714;51.208;4.242;2022-09-01T00:44:34;20.10;94.50
19164;DHT22;9714;51.208;4.242;2022-09-01T00:47:04;20.20;94.40
19164;DHT22;9714;51.208;4.242;2022-09-01T00:49:35;20.20;94.30
19164;DHT22;9714;51.208;4.242;2022-09-01T00:52:07;20.10;94.30
19164;DHT22;9714;51.208;4.242;2022-09-01T00:54:40;19.80;94.50
19164;DHT22;9714;51.208;4.242;2022-09-01T00:57:10;19.70;94.60
19164;DHT22;9714;51.208;4.242;2022-09-01T00:59:44;19.90;94.50
19164;DHT22;9714;51.208;4.242;2022-09-01T01:02:13;19.80;94.50
19164;DHT22;9714;51.208;4.242;2022-09-01T01:04:40;19.70;94.60
19164;DHT22;9714;51.208;4.242;2022-09-01T01:07:09;19.80;94.30
19164;DHT22;9714;51.208;4.242;2022-09-01T01:09:41;19.70;94.30
19164;DHT22;9714;51.208;4.242;2022-09-01T01:12:10;19.70;94.50
19164;DHT22;9714;51.208;4.242;2022-09-01T01:14:44;19.60;94.30
19164;DHT22;9714;51.208;4.242;2022-09-01T01:17:13;19.70;94.20
19164;DHT22;9714;51.208;4.242;2022-09-01T01:19:43;19.80;94.10
19164;DHT22;9714;51.208;4.242;2022-09-01T01:22:40;19.90;94.10
19164;DHT22;9714;51.208;4.242;2022-09-01T01:25:33;19.80;94.30
19164;DHT22;9714;51.208;4.242;2022-09-01T01:28:06;19.70;93.90
19164;DHT22;9714;51.208;4.242;2022-09-01T01:30:37;19.70;94.10
19164;DHT22;9714;51.208;4.242;2022-09-01T01:33:06;19.70;94.00
19164;DHT22;9714;51.208;4.242;2022-09-01T01:35:34;19.50;94.30
19164;DHT22;9714;51.208;4.242;2022-09-01T01:38:04;19.70;94.30
19164;DHT22;9714;51.208;4.242;2022-09-01T01:40:34;19.70;94.10
19164;DHT22;9714;51.208;4.242;2022-09-01T01:43:03;19.50;94.70
19164;DHT22;9714;51.208;4.242;2022-09-01T01:45:30;19.30;95.00
19164;DHT22;9714;51.208;4.242;2022-09-01T01:47:58;19.40;95.20
19164;DHT22;9714;51.208;4.242;2022-09-01T01:50:33;19.50;95.00
19164;DHT22;9714;51.208;4.242;2022-09-01T01:53:02;19.60;95.00
19164;DHT22;9714;51.208;4.242;2022-09-01T01:55:30;19.70;94.90
19164;DHT22;9714;51.208;4.242;2022-09-01T01:58:00;19.70;95.00
19164;DHT22;9714;51.208;4.242;2022-09-01T02:00:30;19.60;95.00
19164;DHT22;9714;51.208;4.242;2022-09-01T02:02:59;19.50;95.20
19164;DHT22;9714;51.208;4.242;2022-09-01T02:05:28;19.60;95.20
19164;DHT22;9714;51.208;4.242;2022-09-01T02:07:58;19.50;95.40
19164;DHT22;9714;51.208;4.242;2022-09-01T02:10:29;19.40;95.60
19164;DHT22;9714;51.208;4.242;2022-09-01T02:12:58;19.40;96.00
19164;DHT22;9714;51.208;4.242;2022-09-01T02:15:36;19.40;95.90
19164;DHT22;9714;51.208;4.242;2022-09-01T02:18:08;19.30;96.20
19164;DHT22;9714;51.208;4.242;2022-09-01T02:20:36;19.40;96.30
19164;DHT22;9714;51.208;4.242;2022-09-01T02:23:04;19.40;96.20
19164;DHT22;9714;51.208;4.242;2022-09-01T02:25:37;19.30;96.40
19164;DHT22;9714;51.208;4.242;2022-09-01T02:28:09;19.20;96.80
19164;DHT22;9714;51.208;4.242;2022-09-01T02:30:42;19.30;96.80
19164;DHT22;9714;51.208;4.242;2022-09-01T02:33:10;19.30;96.80
19164;DHT22;9714;51.208;4.242;2022-09-01T02:35:43;19.20;97.30
19164;DHT22;9714;51.208;4.242;2022-09-01T02:38:10;19.20;97.40
19164;DHT22;9714;51.208;4.242;2022-09-01T02:40:39;19.20;97.70
19164;DHT22;9714;51.208;4.242;2022-09-01T02:43:11;19.10;98.10
19164;DHT22;9714;51.208;4.242;2022-09-01T02:45:39;19.00;98.30
19164;DHT22;9714;51.208;4.242;2022-09-01T02:48:10;19.10;98.50
19164;DHT22;9714;51.208;4.242;2022-09-01T02:50:38;19.20;98.30
19164;DHT22;9714;51.208;4.242;2022-09-01T02:53:07;19.10;98.50
19164;DHT22;9714;51.208;4.242;2022-09-01T02:55:35;19.20;98.60
19164;DHT22;9714;51.208;4.242;2022-09-01T02:58:02;19.20;98.70
19164;DHT22;9714;51.208;4.242;2022-09-01T03:00:29;19.10;98.80
19164;DHT22;9714;51.208;4.242;2022-09-01T03:03:01;19.10;99.20
19164;DHT22;9714;51.208;4.242;2022-09-01T03:05:31;18.90;99.60
19164;DHT22;9714;51.208;4.242;2022-09-01T03:08:01;18.90;99.90
19164;DHT22;9714;51.208;4.242;2022-09-01T03:10:30;18.90;99.90
19164;DHT22;9714;51.208;4.242;2022-09-01T03:12:59;19.00;99.90
19164;DHT22;9714;51.208;4.242;2022-09-01T03:15:27;19.00;99.90
19164;DHT22;9714;51.208;4.242;2022-09-01T03:17:57;19.00;99.90
19164;DHT22;9714;51.208;4.242;2022-09-01T03:20:30;19.00;99.90
19164;DHT22;9714;51.208;4.242;2022-09-01T03:22:58;18.90;99.90
19164;DHT22;9714;51.208;4.242;2022-09-01T03:25:26;18.80;99.90
19164;DHT22;9714;51.208;4.242;2022-09-01T03:27:55;18.70;99.90
19164;DHT22;9714;51.208;4.242;2022-09-01T03:30:24;18.70;99.90
19164;DHT22;9714;51.208;4.242;2022-09-01T03:32:51;18.80;99.90
19164;DHT22;9714;51.208;4.242;2022-09-01T03:35:19;18.70;99.90
19164;DHT22;9714;51.208;4.242;2022-09-01T03:37:48;18.70;99.90
19164;DHT22;9714;51.208;4.242;2022-09-01T03:40:15;18.50;99.90
19164;DHT22;9714;51.208;4.242;2022-09-01T03:42:44;18.40;99.90
19164;DHT22;9714;51.208;4.242;2022-09-01T03:45:12;18.50;99.90
19164;DHT22;9714;51.208;4.242;2022-09-01T03:47:41;18.60;99.90
19164;DHT22;9714;51.208;4.242;2022-09-01T03:50:11;18.50;99.90
19164;DHT22;9714;51.208;4.242;2022-09-01T03:52:45;18.40;99.90
19164;DHT22;9714;51.208;4.242;2022-09-01T03:55:15;18.40;99.90
19164;DHT22;9714;51.208;4.242;2022-09-01T03:57:47;18.50;99.90
19164;DHT22;9714;51.208;4.242;2022-09-01T04:00:16;18.50;99.90
19164;DHT22;9714;51.208;4.242;2022-09-01T04:02:46;18.40;99.90
19164;DHT22;9714;51.208;4.242;2022-09-01T04:05:16;18.40;99.90
19164;DHT22;9714;51.208;4.242;2022-09-01T04:07:44;18.30;99.90
19164;DHT22;9714;51.208;4.242;2022-09-01T04:10:16;18.40;99.90
19164;DHT22;9714;51.208;4.242;2022-09-01T04:12:44;18.30;99.90
19164;DHT22;9714;51.208;4.242;2022-09-01T04:15:12;18.20;99.90
19164;DHT22;9714;51.208;4.242;2022-09-01T04:17:39;18.30;99.90
19164;DHT22;9714;51.208;4.242;2022-09-01T04:20:24;18.30;99.90
19164;DHT22;9714;51.208;4.242;2022-09-01T04:22:52;18.30;99.90
19164;DHT22;9714;51.208;4.242;2022-09-01T04:25:21;18.50;99.90
19164;DHT22;9714;51.208;4.242;2022-09-01T04:27:51;18.40;99.90
19164;DHT22;9714;51.208;4.242;2022-09-01T04:30:18;18.50;99.90
19164;DHT22;9714;51.208;4.242;2022-09-01T04:32:45;18.30;99.90
19164;DHT22;9714;51.208;4.242;2022-09-01T04:35:12;18.30;99.90
19164;DHT22;9714;51.208;4.242;2022-09-01T04:37:41;18.30;99.90
19164;DHT22;9714;51.208;4.242;2022-09-01T04:40:09;18.20;99.90
19164;DHT22;9714;51.208;4.242;2022-09-01T04:42:40;18.10;99.90
19164;DHT22;9714;51.208;4.242;2022-09-01T04:45:08;18.00;99.90
19164;DHT22;9714;51.208;4.242;2022-09-01T04:47:37;18.00;99.90
19164;DHT22;9714;51.208;4.242;2022-09-01T04:50:08;18.00;99.90
19164;DHT22;9714;51.208;4.242;2022-09-01T04:52:39;17.90;99.90
19164;DHT22;9714;51.208;4.242;2022-09-01T04:55:09;17.90;99.90
19164;DHT22;9714;51.208;4.242;2022-09-01T04:57:43;17.90;99.90
19164;DHT22;9714;51.208;4.242;2022-09-01T05:00:14;18.00;99.90
19164;DHT22;9714;51.208;4.242;2022-09-01T05:02:48;17.90;99.90
19164;DHT22;9714;51.208;4.242;2022-09-01T05:05:17;18.00;99.90
19164;DHT22;9714;51.208;4.242;2022-09-01T05:07:44;18.10;99.90
19164;DHT22;9714;51.208;4.242;2022-09-01T05:10:12;18.00;99.90
19164;DHT22;9714;51.208;4.242;2022-09-01T05:12:39;17.80;99.90
19164;DHT22;9714;51.208;4.242;2022-09-01T05:15:11;18.00;99.90
19164;DHT22;9714;51.208;4.242;2022-09-01T05:17:38;17.80;99.90
19164;DHT22;9714;51.208;4.242;2022-09-01T05:20:07;17.70;99.90
19164;DHT22;9714;51.208;4.242;2022-09-01T05:22:34;17.70;99.90
19164;DHT22;9714;51.208;4.242;2022-09-01T05:25:04;17.80;99.90
19164;DHT22;9714;51.208;4.242;2022-09-01T05:27:38;17.80;99.90
19164;DHT22;9714;51.208;4.242;2022-09-01T05:30:07;17.70;99.90
19164;DHT22;9714;51.208;4.242;2022-09-01T05:32:36;17.70;99.90
19164;DHT22;9714;51.208;4.242;2022-09-01T05:35:05;17.70;99.90
19164;DHT22;9714;51.208;4.242;2022-09-01T05:37:34;17.60;99.90
19164;DHT22;9714;51.208;4.242;2022-09-01T05:40:04;17.50;99.90
19164;DHT22;9714;51.208;4.242;2022-09-01T05:42:32;17.60;99.90
19164;DHT22;9714;51.208;4.242;2022-09-01T05:44:59;17.80;99.90
19164;DHT22;9714;51.208;4.242;2022-09-01T05:47:27;17.80;99.90
19164;DHT22;9714;51.208;4.242;2022-09-01T05:49:55;17.90;99.90
19164;DHT22;9714;51.208;4.242;2022-09-01T05:52:23;17.80;99.90
19164;DHT22;9714;51.208;4.242;2022-09-01T05:54:51;17.80;99.90
19164;DHT22;9714;51.208;4.242;2022-09-01T05:57:18;17.90;99.90
19164;DHT22;9714;51.208;4.242;2022-09-01T05:59:46;18.00;99.90
19164;DHT22;9714;51.208;4.242;2022-09-01T06:02:19;17.90;99.90
19164;DHT22;9714;51.208;4.242;2022-09-01T06:04:46;17.90;99.90
19164;DHT22;9714;51.208;4.242;2022-09-01T06:07:16;18.00;99.90
19164;DHT22;9714;51.208;4.242;2022-09-01T06:09:46;18.20;99.90
19164;DHT22;9714;51.208;4.242;2022-09-01T06:12:15;18.20;99.90
19164;DHT22;9714;51.208;4.242;2022-09-01T06:14:50;18.20;99.90
19164;DHT22;9714;51.208;4.242;2022-09-01T06:17:19;18.30;99.90
19164;DHT22;9714;51.208;4.242;2022-09-01T06:19:50;18.30;99.90
19164;DHT22;9714;51.208;4.242;2022-09-01T06:22:24;18.40;99.90
19164;DHT22;9714;51.208;4.242;2022-09-01T06:24:51;18.50;99.90
19164;DHT22;9714;51.208;4.242;2022-09-01T06:27:19;18.60;99.90
19164;DHT22;9714;51.208;4.242;2022-09-01T06:29:47;18.60;99.90
19164;DHT22;9714;51.208;4.242;2022-09-01T06:32:16;18.60;99.90
19164;DHT22;9714;51.208;4.242;2022-09-01T06:34:44;18.60;99.90
19164;DHT22;9714;51.208;4.242;2022-09-01T06:37:16;18.70;99.90
19164;DHT22;9714;51.208;4.242;2022-09-01T06:39:49;18.80;99.90
19164;DHT22;9714;51.208;4.242;2022-09-01T06:42:16;18.90;99.90
19164;DHT22;9714;51.208;4.242;2022-09-01T06:44:45;19.00;99.90
19164;DHT22;9714;51.208;4.242;2022-09-01T06:47:13;19.20;99.90
19164;DHT22;9714;51.208;4.242;2022-09-01T06:49:41;19.50;99.90
19164;DHT22;9714;51.208;4.242;2022-09-01T06:52:09;19.60;99.90
19164;DHT22;9714;51.208;4.242;2022-09-01T06:54:38;19.80;99.90
19164;DHT22;9714;51.208;4.242;2022-09-01T06:57:10;19.90;99.90
19164;DHT22;9714;51.208;4.242;2022-09-01T06:59:37;20.00;99.90
19164;DHT22;9714;51.208;4.242;2022-09-01T07:02:04;20.20;99.90
19164;DHT22;9714;51.208;4.242;2022-09-01T07:04:31;20.30;99.90
19164;DHT22;9714;51.208;4.242;2022-09-01T07:06:58;20.40;99.90
19164;DHT22;9714;51.208;4.242;2022-09-01T07:09:26;20.40;99.90
19164;DHT22;9714;51.208;4.242;2022-09-01T07:11:53;20.70;99.90
19164;DHT22;9714;51.208;4.242;2022-09-01T07:14:22;21.30;99.90
19164;DHT22;9714;51.208;4.242;2022-09-01T07:16:49;21.20;99.90
19164;DHT22;9714;51.208;4.242;2022-09-01T07:19:16;21.50;99.90
19164;DHT22;9714;51.208;4.242;2022-09-01T07:21:44;22.30;99.90
19164;DHT22;9714;51.208;4.242;2022-09-01T07:24:12;22.60;99.90
19164;DHT22;9714;51.208;4.242;2022-09-01T07:26:44;22.60;99.90
19164;DHT22;9714;51.208;4.242;2022-09-01T07:29:15;22.70;99.90
19164;DHT22;9714;51.208;4.242;2022-09-01T07:31:47;23.00;99.90
19164;DHT22;9714;51.208;4.242;2022-09-01T07:34:15;22.90;99.90
19164;DHT22;9714;51.208;4.242;2022-09-01T07:36:43;23.10;99.90
19164;DHT22;9714;51.208;4.242;2022-09-01T07:39:11;23.00;99.90
19164;DHT22;9714;51.208;4.242;2022-09-01T07:41:40;23.20;99.90
19164;DHT22;9714;51.208;4.242;2022-09-01T07:44:08;23.30;99.90
19164;DHT22;9714;51.208;4.242;2022-09-01T07:46:38;23.40;99.90
19164;DHT22;9714;51.208;4.242;2022-09-01T07:49:07;23.50;99.90
19164;DHT22;9714;51.208;4.242;2022-09-01T07:51:34;24.00;99.90
19164;DHT22;9714;51.208;4.242;2022-09-01T07:54:01;24.40;99.90
19164;DHT22;9714;51.208;4.242;2022-09-01T07:56:28;25.10;99.90
19164;DHT22;9714;51.208;4.242;2022-09-01T07:58:56;25.10;99.60
19164;DHT22;9714;51.208;4.242;2022-09-01T08:01:25;25.50;98.90
19164;DHT22;9714;51.208;4.242;2022-09-01T08:03:58;25.70;97.50
19164;DHT22;9714;51.208;4.242;2022-09-01T08:06:28;24.80;97.70
19164;DHT22;9714;51.208;4.242;2022-09-01T08:08:58;24.90;98.30
19164;DHT22;9714;51.208;4.242;2022-09-01T08:11:27;24.80;98.30
19164;DHT22;9714;51.208;4.242;2022-09-01T08:13:55;25.30;97.40
19164;DHT22;9714;51.208;4.242;2022-09-01T08:16:24;25.30;97.30
19164;DHT22;9714;51.208;4.242;2022-09-01T08:18:52;26.10;96.60
19164;DHT22;9714;51.208;4.242;2022-09-01T08:21:21;26.20;95.50
19164;DHT22;9714;51.208;4.242;2022-09-01T08:23:52;25.50;95.40
19164;DHT22;9714;51.208;4.242;2022-09-01T08:26:21;24.90;96.50
19164;DHT22;9714;51.208;4.242;2022-09-01T08:28:52;25.20;96.40
19164;DHT22;9714;51.208;4.242;2022-09-01T08:31:20;25.50;95.90
19164;DHT22;9714;51.208;4.242;2022-09-01T08:33:48;25.70;95.70
19164;DHT22;9714;51.208;4.242;2022-09-01T08:36:15;26.00;95.30
19164;DHT22;9714;51.208;4.242;2022-09-01T08:38:43;26.20;95.00
19164;DHT22;9714;51.208;4.242;2022-09-01T08:41:17;27.10;93.60
19164;DHT22;9714;51.208;4.242;2022-09-01T08:43:52;27.60;93.20
19164;DHT22;9714;51.208;4.242;2022-09-01T08:46:26;27.40;92.30
19164;DHT22;9714;51.208;4.242;2022-09-01T08:48:55;27.80;92.10
19164;DHT22;9714;51.208;4.242;2022-09-01T08:51:29;28.30;90.90
19164;DHT22;9714;51.208;4.242;2022-09-01T08:54:02;28.40;90.60
19164;DHT22;9714;51.208;4.242;2022-09-01T08:56:32;28.60;90.00
19164;DHT22;9714;51.208;4.242;2022-09-01T08:59:01;28.80;89.60
19164;DHT22;9714;51.208;4.242;2022-09-01T09:01:32;29.50;87.00
19164;DHT22;9714;51.208;4.242;2022-09-01T09:04:17;29.40;85.70
19164;DHT22;9714;51.208;4.242;2022-09-01T09:06:53;29.50;84.20
19164;DHT22;9714;51.208;4.242;2022-09-01T09:09:32;29.40;84.10
19164;DHT22;9714;51.208;4.242;2022-09-01T09:12:23;29.50;83.80
19164;DHT22;9714;51.208;4.242;2022-09-01T09:15:02;29.70;82.10
19164;DHT22;9714;51.208;4.242;2022-09-01T09:17:36;29.90;81.70
19164;DHT22;9714;51.208;4.242;2022-09-01T09:20:06;30.30;79.30
19164;DHT22;9714;51.208;4.242;2022-09-01T09:22:33;30.30;78.90
19164;DHT22;9714;51.208;4.242;2022-09-01T09:25:05;29.80;79.60
19164;DHT22;9714;51.208;4.242;2022-09-01T09:27:37;29.90;79.10
19164;DHT22;9714;51.208;4.242;2022-09-01T09:30:12;30.10;79.00
19164;DHT22;9714;51.208;4.242;2022-09-01T09:32:48;31.10;78.20
19164;DHT22;9714;51.208;4.242;2022-09-01T09:35:24;31.20;75.50
19164;DHT22;9714;51.208;4.242;2022-09-01T09:37:52;31.00;75.80
19164;DHT22;9714;51.208;4.242;2022-09-01T09:40:21;30.90;74.90
19164;DHT22;9714;51.208;4.242;2022-09-01T09:43:06;30.00;76.00
19164;DHT22;9714;51.208;4.242;2022-09-01T09:45:36;30.50;76.90
19164;DHT22;9714;51.208;4.242;2022-09-01T09:48:06;31.00;74.70
19164;DHT22;9714;51.208;4.242;2022-09-01T09:50:36;30.60;74.10
19164;DHT22;9714;51.208;4.242;2022-09-01T09:53:13;30.70;74.70
19164;DHT22;9714;51.208;4.242;2022-09-01T09:55:59;31.20;75.20
19164;DHT22;9714;51.208;4.242;2022-09-01T09:58:35;31.80;72.40
19164;DHT22;9714;51.208;4.242;2022-09-01T10:01:09;32.20;72.50
19164;DHT22;9714;51.208;4.242;2022-09-01T10:03:42;32.20;69.90
19164;DHT22;9714;51.208;4.242;2022-09-01T10:06:12;32.70;70.50
19164;DHT22;9714;51.208;4.242;2022-09-01T10:08:42;33.50;67.90
19164;DHT22;9714;51.208;4.242;2022-09-01T10:11:26;32.90;67.40
19164;DHT22;9714;51.208;4.242;2022-09-01T10:13:55;33.40;67.00
19164;DHT22;9714;51.208;4.242;2022-09-01T10:16:26;33.50;65.90
19164;DHT22;9714;51.208;4.242;2022-09-01T10:18:56;33.00;65.30
19164;DHT22;9714;51.208;4.242;2022-09-01T10:21:29;33.10;65.30
19164;DHT22;9714;51.208;4.242;2022-09-01T10:23:58;32.10;65.60
19164;DHT22;9714;51.208;4.242;2022-09-01T10:26:29;32.10;66.00
19164;DHT22;9714;51.208;4.242;2022-09-01T10:29:06;32.50;65.70
19164;DHT22;9714;51.208;4.242;2022-09-01T10:31:34;33.40;64.10
19164;DHT22;9714;51.208;4.242;2022-09-01T10:34:04;33.80;63.40
19164;DHT22;9714;51.208;4.242;2022-09-01T10:36:33;32.60;62.40
19164;DHT22;9714;51.208;4.242;2022-09-01T10:39:02;32.50;62.00
19164;DHT22;9714;51.208;4.242;2022-09-01T10:41:50;32.60;61.40
19164;DHT22;9714;51.208;4.242;2022-09-01T10:44:24;34.00;58.80
19164;DHT22;9714;51.208;4.242;2022-09-01T10:46:56;33.20;58.00
19164;DHT22;9714;51.208;4.242;2022-09-01T10:49:59;32.80;59.40
19164;DHT22;9714;51.208;4.242;2022-09-01T10:53:02;33.90;58.20
19164;DHT22;9714;51.208;4.242;2022-09-01T10:55:43;34.20;58.40
19164;DHT22;9714;51.208;4.242;2022-09-01T11:01:05;33.20;58.00
19164;DHT22;9714;51.208;4.242;2022-09-01T11:03:52;33.40;58.40
19164;DHT22;9714;51.208;4.242;2022-09-01T11:06:51;34.20;57.40
19164;DHT22;9714;51.208;4.242;2022-09-01T11:09:22;34.90;56.20
19164;DHT22;9714;51.208;4.242;2022-09-01T11:14:48;34.80;55.20
19164;DHT22;9714;51.208;4.242;2022-09-01T11:17:20;35.60;54.10
19164;DHT22;9714;51.208;4.242;2022-09-01T11:20:05;34.70;54.20
19164;DHT22;9714;51.208;4.242;2022-09-01T11:22:37;35.10;53.20
19164;DHT22;9714;51.208;4.242;2022-09-01T11:30:51;35.80;52.60
19164;DHT22;9714;51.208;4.242;2022-09-01T11:33:42;36.60;51.00
19164;DHT22;9714;51.208;4.242;2022-09-01T11:36:15;35.80;51.50
19164;DHT22;9714;51.208;4.242;2022-09-01T11:38:48;35.60;52.40
19164;DHT22;9714;51.208;4.242;2022-09-01T11:41:21;35.70;51.20
19164;DHT22;9714;51.208;4.242;2022-09-01T11:43:51;35.30;51.90
19164;DHT22;9714;51.208;4.242;2022-09-01T11:46:24;35.80;51.80
19164;DHT22;9714;51.208;4.242;2022-09-01T11:48:54;35.60;51.20
19164;DHT22;9714;51.208;4.242;2022-09-01T11:51:22;35.50;51.90
19164;DHT22;9714;51.208;4.242;2022-09-01T11:53:49;36.30;50.70
19164;DHT22;9714;51.208;4.242;2022-09-01T11:56:19;35.80;51.00
19164;DHT22;9714;51.208;4.242;2022-09-01T11:58:50;35.90;50.30
19164;DHT22;9714;51.208;4.242;2022-09-01T12:01:19;34.90;50.70
19164;DHT22;9714;51.208;4.242;2022-09-01T12:03:49;35.10;50.80
19164;DHT22;9714;51.208;4.242;2022-09-01T12:06:21;35.20;51.00
19164;DHT22;9714;51.208;4.242;2022-09-01T12:08:55;35.50;50.90
19164;DHT22;9714;51.208;4.242;2022-09-01T12:11:24;35.90;50.00
19164;DHT22;9714;51.208;4.242;2022-09-01T12:13:58;36.30;49.70
19164;DHT22;9714;51.208;4.242;2022-09-01T12:16:28;36.90;49.30
19164;DHT22;9714;51.208;4.242;2022-09-01T12:18:57;37.40;48.10
19164;DHT22;9714;51.208;4.242;2022-09-01T12:21:29;37.00;48.30
19164;DHT22;9714;51.208;4.242;2022-09-01T12:24:11;37.00;48.50
19164;DHT22;9714;51.208;4.242;2022-09-01T12:26:39;37.10;48.10
19164;DHT22;9714;51.208;4.242;2022-09-01T12:29:07;37.20;47.90
19164;DHT22;9714;51.208;4.242;2022-09-01T12:31:36;38.10;47.40
19164;DHT22;9714;51.208;4.242;2022-09-01T12:37:01;37.50;46.70
19164;DHT22;9714;51.208;4.242;2022-09-01T12:39:33;37.10;47.30
19164;DHT22;9714;51.208;4.242;2022-09-01T12:42:03;37.20;47.00
19164;DHT22;9714;51.208;4.242;2022-09-01T12:44:32;37.00;47.70
19164;DHT22;9714;51.208;4.242;2022-09-01T12:47:02;36.60;47.40
19164;DHT22;9714;51.208;4.242;2022-09-01T12:49:38;37.20;47.70
19164;DHT22;9714;51.208;4.242;2022-09-01T12:52:17;37.00;47.50
19164;DHT22;9714;51.208;4.242;2022-09-01T12:54:48;36.90;47.00
19164;DHT22;9714;51.208;4.242;2022-09-01T12:57:24;36.80;46.90
19164;DHT22;9714;51.208;4.242;2022-09-01T13:00:13;36.70;46.80
19164;DHT22;9714;51.208;4.242;2022-09-01T13:02:46;36.20;46.80
19164;DHT22;9714;51.208;4.242;2022-09-01T13:05:20;36.10;47.80
19164;DHT22;9714;51.208;4.242;2022-09-01T13:07:51;34.90;48.10
19164;DHT22;9714;51.208;4.242;2022-09-01T13:10:21;35.30;48.10
19164;DHT22;9714;51.208;4.242;2022-09-01T13:12:50;36.20;47.70
19164;DHT22;9714;51.208;4.242;2022-09-01T13:15:18;35.90;47.00
19164;DHT22;9714;51.208;4.242;2022-09-01T13:17:46;35.10;48.50
19164;DHT22;9714;51.208;4.242;2022-09-01T13:20:13;35.80;47.80
19164;DHT22;9714;51.208;4.242;2022-09-01T13:22:41;36.10;47.90
19164;DHT22;9714;51.208;4.242;2022-09-01T13:25:11;36.50;46.90
19164;DHT22;9714;51.208;4.242;2022-09-01T13:27:42;36.70;47.20
19164;DHT22;9714;51.208;4.242;2022-09-01T13:30:10;38.00;46.40
19164;DHT22;9714;51.208;4.242;2022-09-01T13:32:38;38.60;45.50
19164;DHT22;9714;51.208;4.242;2022-09-01T13:35:06;38.10;45.70
19164;DHT22;9714;51.208;4.242;2022-09-01T13:37:34;37.60;45.90
19164;DHT22;9714;51.208;4.242;2022-09-01T13:40:02;36.50;46.30
19164;DHT22;9714;51.208;4.242;2022-09-01T13:42:31;36.30;46.40
19164;DHT22;9714;51.208;4.242;2022-09-01T13:44:58;37.00;46.40
19164;DHT22;9714;51.208;4.242;2022-09-01T13:47:26;36.70;46.40
19164;DHT22;9714;51.208;4.242;2022-09-01T13:49:53;36.70;46.90
19164;DHT22;9714;51.208;4.242;2022-09-01T13:52:20;36.20;46.50
19164;DHT22;9714;51.208;4.242;2022-09-01T13:54:47;34.90;47.40
19164;DHT22;9714;51.208;4.242;2022-09-01T13:57:14;34.50;48.20
19164;DHT22;9714;51.208;4.242;2022-09-01T13:59:43;33.90;48.40
19164;DHT22;9714;51.208;4.242;2022-09-01T14:02:10;33.40;48.70
19164;DHT22;9714;51.208;4.242;2022-09-01T14:04:38;33.50;48.70
19164;DHT22;9714;51.208;4.242;2022-09-01T14:07:05;35.60;47.40
19164;DHT22;9714;51.208;4.242;2022-09-01T14:09:33;35.70;46.80
19164;DHT22;9714;51.208;4.242;2022-09-01T14:12:00;36.30;46.70
19164;DHT22;9714;51.208;4.242;2022-09-01T14:14:27;37.20;46.70
19164;DHT22;9714;51.208;4.242;2022-09-01T14:16:55;37.10;45.90
19164;DHT22;9714;51.208;4.242;2022-09-01T14:19:22;38.20;45.50
19164;DHT22;9714;51.208;4.242;2022-09-01T14:21:50;37.10;44.90
19164;DHT22;9714;51.208;4.242;2022-09-01T14:24:17;36.80;45.10
19164;DHT22;9714;51.208;4.242;2022-09-01T14:26:45;37.20;44.90
19164;DHT22;9714;51.208;4.242;2022-09-01T14:29:12;37.20;44.30
19164;DHT22;9714;51.208;4.242;2022-09-01T14:31:40;37.20;44.80
19164;DHT22;9714;51.208;4.242;2022-09-01T14:34:09;37.40;44.70
19164;DHT22;9714;51.208;4.242;2022-09-01T14:36:37;37.40;43.90
19164;DHT22;9714;51.208;4.242;2022-09-01T14:39:04;37.60;44.20
19164;DHT22;9714;51.208;4.242;2022-09-01T14:41:32;37.60;44.00
19164;DHT22;9714;51.208;4.242;2022-09-01T14:43:59;37.70;44.40
19164;DHT22;9714;51.208;4.242;2022-09-01T14:46:27;37.20;44.90
19164;DHT22;9714;51.208;4.242;2022-09-01T14:48:55;36.50;45.00
19164;DHT22;9714;51.208;4.242;2022-09-01T14:51:26;36.20;44.90
19164;DHT22;9714;51.208;4.242;2022-09-01T14:53:54;35.30;45.20
19164;DHT22;9714;51.208;4.242;2022-09-01T14:56:22;34.00;46.20
19164;DHT22;9714;51.208;4.242;2022-09-01T14:58:50;34.10;46.70
19164;DHT22;9714;51.208;4.242;2022-09-01T15:01:24;34.90;45.80
19164;DHT22;9714;51.208;4.242;2022-09-01T15:03:52;34.90;45.40
19164;DHT22;9714;51.208;4.242;2022-09-01T15:06:23;33.80;46.20
19164;DHT22;9714;51.208;4.242;2022-09-01T15:08:50;33.30;46.90
19164;DHT22;9714;51.208;4.242;2022-09-01T15:11:18;32.80;46.80
19164;DHT22;9714;51.208;4.242;2022-09-01T15:13:47;32.20;47.60
19164;DHT22;9714;51.208;4.242;2022-09-01T15:16:19;32.40;47.90
19164;DHT22;9714;51.208;4.242;2022-09-01T15:18:48;33.60;47.10
19164;DHT22;9714;51.208;4.242;2022-09-01T15:21:20;34.20;46.80
19164;DHT22;9714;51.208;4.242;2022-09-01T15:23:49;34.70;45.70
19164;DHT22;9714;51.208;4.242;2022-09-01T15:26:18;35.40;46.00
19164;DHT22;9714;51.208;4.242;2022-09-01T15:28:47;35.30;45.10
19164;DHT22;9714;51.208;4.242;2022-09-01T15:31:17;35.80;45.40
19164;DHT22;9714;51.208;4.242;2022-09-01T15:33:46;35.30;45.00
19164;DHT22;9714;51.208;4.242;2022-09-01T15:36:15;35.20;44.40
19164;DHT22;9714;51.208;4.242;2022-09-01T15:38:42;35.50;45.10
19164;DHT22;9714;51.208;4.242;2022-09-01T15:41:14;34.90;44.60
19164;DHT22;9714;51.208;4.242;2022-09-01T15:43:42;34.20;45.20
19164;DHT22;9714;51.208;4.242;2022-09-01T15:46:09;33.70;45.30
19164;DHT22;9714;51.208;4.242;2022-09-01T15:48:37;33.20;45.50
19164;DHT22;9714;51.208;4.242;2022-09-01T15:51:26;33.50;45.90
19164;DHT22;9714;51.208;4.242;2022-09-01T15:53:57;33.80;45.30
19164;DHT22;9714;51.208;4.242;2022-09-01T15:56:26;33.40;46.60
19164;DHT22;9714;51.208;4.242;2022-09-01T15:58:53;33.90;45.60
19164;DHT22;9714;51.208;4.242;2022-09-01T16:01:21;33.70;45.50
19164;DHT22;9714;51.208;4.242;2022-09-01T16:03:48;34.30;45.50
19164;DHT22;9714;51.208;4.242;2022-09-01T16:06:15;34.70;44.40
19164;DHT22;9714;51.208;4.242;2022-09-01T16:08:42;34.50;44.30
19164;DHT22;9714;51.208;4.242;2022-09-01T16:11:11;34.20;44.60
19164;DHT22;9714;51.208;4.242;2022-09-01T16:13:40;33.60;43.70
19164;DHT22;9714;51.208;4.242;2022-09-01T16:16:24;33.30;44.80
19164;DHT22;9714;51.208;4.242;2022-09-01T16:18:59;33.20;44.90
19164;DHT22;9714;51.208;4.242;2022-09-01T16:21:34;34.00;44.80